sensor_id;sensor_type;location;lat;lon;timestamp;P1;durP1;ratioP1;P2;durP2;ratioP2
76725;SDS011;65651;53.154;17.916;2023-02-01T00:00:40;18.70;;;2.00;;
76725;SDS011;65651;53.154;17.916;2023-02-01T00:03:26;2.40;;;1.10;;
76725;SDS011;65651;53.154;17.916;2023-02-01T00:05:56;7.60;;;1.40;;
76725;SDS011;65651;53.154;17.916;2023-02-01T00:08:27;9.90;;;1.90;;
76725;SDS011;65651;53.154;17.916;2023-02-01T00:11:01;8.40;;;2.10;;
76725;SDS011;65651;53.154;17.916;2023-02-01T00:13:33;13.20;;;1.20;;
76725;SDS011;65651;53.154;17.916;2023-02-01T00:16:02;8.90;;;1.70;;
76725;SDS011;65651;53.154;17.916;2023-02-01T00:18:49;8.40;;;1.50;;
76725;SDS011;65651;53.154;17.916;2023-02-01T00:21:21;5.60;;;1.30;;
76725;SDS011;65651;53.154;17.916;2023-02-01T00:23:49;5.60;;;1.50;;
76725;SDS011;65651;53.154;17.916;2023-02-01T00:26:22;14.10;;;1.40;;
76725;SDS011;65651;53.154;17.916;2023-02-01T00:28:57;6.20;;;1.70;;
76725;SDS011;65651;53.154;17.916;2023-02-01T00:31:27;11.00;;;1.60;;
76725;SDS011;65651;53.154;17.916;2023-02-01T00:33:55;13.00;;;2.20;;
76725;SDS011;65651;53.154;17.916;2023-02-01T00:36:22;8.50;;;1.40;;
76725;SDS011;65651;53.154;17.916;2023-02-01T00:38:49;8.80;;;1.80;;
76725;SDS011;65651;53.154;17.916;2023-02-01T00:41:18;3.50;;;1.20;;
76725;SDS011;65651;53.154;17.916;2023-02-01T00:43:50;122.60;;;32.20;;
76725;SDS011;65651;53.154;17.916;2023-02-01T00:46:36;93.80;;;29.90;;
76725;SDS011;65651;53.154;17.916;2023-02-01T00:49:06;150.00;;;42.60;;
76725;SDS011;65651;53.154;17.916;2023-02-01T00:51:35;149.20;;;43.60;;
76725;SDS011;65651;53.154;17.916;2023-02-01T00:54:03;93.10;;;27.80;;
76725;SDS011;65651;53.154;17.916;2023-02-01T00:56:30;88.30;;;25.00;;
76725;SDS011;65651;53.154;17.916;2023-02-01T00:58:58;30.30;;;5.70;;
76725;SDS011;65651;53.154;17.916;2023-02-01T01:04:34;25.40;;;5.00;;
76725;SDS011;65651;53.154;17.916;2023-02-01T01:07:05;10.00;;;2.90;;
76725;SDS011;65651;53.154;17.916;2023-02-01T01:09:36;37.60;;;8.00;;
76725;SDS011;65651;53.154;17.916;2023-02-01T01:12:03;22.90;;;6.80;;
76725;SDS011;65651;53.154;17.916;2023-02-01T01:14:32;82.40;;;29.30;;
76725;SDS011;65651;53.154;17.916;2023-02-01T01:16:59;113.30;;;30.60;;
76725;SDS011;65651;53.154;17.916;2023-02-01T01:19:27;60.80;;;12.70;;
76725;SDS011;65651;53.154;17.916;2023-02-01T01:21:54;27.80;;;3.90;;
76725;SDS011;65651;53.154;17.916;2023-02-01T01:24:21;10.50;;;1.40;;
76725;SDS011;65651;53.154;17.916;2023-02-01T01:26:49;6.60;;;1.20;;
76725;SDS011;65651;53.154;17.916;2023-02-01T01:29:16;8.90;;;1.80;;
76725;SDS011;65651;53.154;17.916;2023-02-01T01:31:44;15.80;;;2.60;;
76725;SDS011;65651;53.154;17.916;2023-02-01T01:34:11;11.70;;;2.60;;
76725;SDS011;65651;53.154;17.916;2023-02-01T01:36:38;8.40;;;1.70;;
76725;SDS011;65651;53.154;17.916;2023-02-01T01:39:06;9.80;;;1.20;;
76725;SDS011;65651;53.154;17.916;2023-02-01T01:47:37;13.50;;;1.10;;
76725;SDS011;65651;53.154;17.916;2023-02-01T01:50:13;10.30;;;1.70;;
76725;SDS011;65651;53.154;17.916;2023-02-01T01:52:48;6.20;;;1.40;;
76725;SDS011;65651;53.154;17.916;2023-02-01T01:55:19;4.80;;;1.30;;
76725;SDS011;65651;53.154;17.916;2023-02-01T01:57:55;15.40;;;2.10;;
76725;SDS011;65651;53.154;17.916;2023-02-01T02:00:44;4.80;;;1.30;;
76725;SDS011;65651;53.154;17.916;2023-02-01T02:03:22;12.20;;;1.70;;
76725;SDS011;65651;53.154;17.916;2023-02-01T02:05:54;10.40;;;2.00;;
76725;SDS011;65651;53.154;17.916;2023-02-01T02:08:26;6.10;;;1.20;;
76725;SDS011;65651;53.154;17.916;2023-02-01T02:10:54;7.20;;;1.60;;
76725;SDS011;65651;53.154;17.916;2023-02-01T02:13:38;12.00;;;1.80;;
76725;SDS011;65651;53.154;17.916;2023-02-01T02:36:27;9.80;;;1.60;;
76725;SDS011;65651;53.154;17.916;2023-02-01T02:48:44;8.80;;;2.10;;
76725;SDS011;65651;53.154;17.916;2023-02-01T02:51:41;8.20;;;1.30;;
76725;SDS011;65651;53.154;17.916;2023-02-01T02:54:36;6.30;;;1.10;;
76725;SDS011;65651;53.154;17.916;2023-02-01T02:57:18;3.70;;;1.10;;
76725;SDS011;65651;53.154;17.916;2023-02-01T03:00:09;4.60;;;1.10;;
76725;SDS011;65651;53.154;17.916;2023-02-01T03:03:01;4.10;;;0.90;;
76725;SDS011;65651;53.154;17.916;2023-02-01T03:05:49;11.90;;;1.40;;
76725;SDS011;65651;53.154;17.916;2023-02-01T03:16:15;14.70;;;1.90;;
76725;SDS011;65651;53.154;17.916;2023-02-01T03:19:03;10.00;;;2.20;;
76725;SDS011;65651;53.154;17.916;2023-02-01T03:21:52;13.00;;;2.10;;
76725;SDS011;65651;53.154;17.916;2023-02-01T03:24:25;6.90;;;1.70;;
76725;SDS011;65651;53.154;17.916;2023-02-01T03:27:07;5.70;;;1.00;;
76725;SDS011;65651;53.154;17.916;2023-02-01T03:32:19;7.90;;;1.20;;
76725;SDS011;65651;53.154;17.916;2023-02-01T03:34:47;8.00;;;1.40;;
76725;SDS011;65651;53.154;17.916;2023-02-01T03:37:21;8.90;;;2.90;;
76725;SDS011;65651;53.154;17.916;2023-02-01T03:40:15;9.90;;;1.40;;
76725;SDS011;65651;53.154;17.916;2023-02-01T03:43:13;11.50;;;2.20;;
76725;SDS011;65651;53.154;17.916;2023-02-01T03:45:44;8.50;;;1.00;;
76725;SDS011;65651;53.154;17.916;2023-02-01T03:48:16;12.70;;;1.50;;
76725;SDS011;65651;53.154;17.916;2023-02-01T03:50:47;4.70;;;1.30;;
76725;SDS011;65651;53.154;17.916;2023-02-01T03:53:20;8.50;;;1.20;;
76725;SDS011;65651;53.154;17.916;2023-02-01T03:55:50;10.10;;;2.00;;
76725;SDS011;65651;53.154;17.916;2023-02-01T03:58:20;8.90;;;1.80;;
76725;SDS011;65651;53.154;17.916;2023-02-01T04:03:26;11.60;;;1.40;;
76725;SDS011;65651;53.154;17.916;2023-02-01T04:05:55;5.70;;;1.40;;
76725;SDS011;65651;53.154;17.916;2023-02-01T04:08:25;10.10;;;1.90;;
76725;SDS011;65651;53.154;17.916;2023-02-01T04:10:52;13.80;;;2.10;;
76725;SDS011;65651;53.154;17.916;2023-02-01T04:13:20;16.60;;;2.90;;
76725;SDS011;65651;53.154;17.916;2023-02-01T04:15:47;11.90;;;2.50;;
76725;SDS011;65651;53.154;17.916;2023-02-01T04:18:19;8.80;;;2.00;;
76725;SDS011;65651;53.154;17.916;2023-02-01T04:20:47;17.90;;;2.30;;
76725;SDS011;65651;53.154;17.916;2023-02-01T04:23:14;15.10;;;3.60;;
76725;SDS011;65651;53.154;17.916;2023-02-01T04:25:42;14.30;;;2.40;;
76725;SDS011;65651;53.154;17.916;2023-02-01T04:28:10;21.40;;;3.70;;
76725;SDS011;65651;53.154;17.916;2023-02-01T04:30:37;12.40;;;3.90;;
76725;SDS011;65651;53.154;17.916;2023-02-01T04:33:04;27.20;;;5.20;;
76725;SDS011;65651;53.154;17.916;2023-02-01T04:35:32;24.50;;;4.50;;
76725;SDS011;65651;53.154;17.916;2023-02-01T04:37:59;19.90;;;3.80;;
76725;SDS011;65651;53.154;17.916;2023-02-01T04:40:27;11.20;;;1.60;;
76725;SDS011;65651;53.154;17.916;2023-02-01T04:42:54;19.30;;;2.40;;
76725;SDS011;65651;53.154;17.916;2023-02-01T04:45:24;12.90;;;1.90;;
76725;SDS011;65651;53.154;17.916;2023-02-01T04:50:40;11.70;;;1.60;;
76725;SDS011;65651;53.154;17.916;2023-02-01T04:53:07;14.20;;;1.90;;
76725;SDS011;65651;53.154;17.916;2023-02-01T04:58:30;10.70;;;1.60;;
76725;SDS011;65651;53.154;17.916;2023-02-01T05:00:57;22.90;;;2.60;;
76725;SDS011;65651;53.154;17.916;2023-02-01T05:03:25;12.40;;;2.30;;
76725;SDS011;65651;53.154;17.916;2023-02-01T05:05:52;17.80;;;2.20;;
76725;SDS011;65651;53.154;17.916;2023-02-01T05:08:20;22.60;;;3.10;;
76725;SDS011;65651;53.154;17.916;2023-02-01T05:10:49;9.40;;;1.30;;
76725;SDS011;65651;53.154;17.916;2023-02-01T05:13:16;9.20;;;1.50;;
76725;SDS011;65651;53.154;17.916;2023-02-01T05:16:02;12.20;;;1.20;;
76725;SDS011;65651;53.154;17.916;2023-02-01T05:18:31;10.20;;;2.10;;
76725;SDS011;65651;53.154;17.916;2023-02-01T05:21:00;12.50;;;1.60;;
76725;SDS011;65651;53.154;17.916;2023-02-01T05:23:31;11.70;;;1.50;;
76725;SDS011;65651;53.154;17.916;2023-02-01T05:26:27;12.50;;;2.20;;
76725;SDS011;65651;53.154;17.916;2023-02-01T05:28:54;11.60;;;3.20;;
76725;SDS011;65651;53.154;17.916;2023-02-01T05:31:22;13.20;;;1.90;;
76725;SDS011;65651;53.154;17.916;2023-02-01T05:33:49;15.50;;;1.10;;
76725;SDS011;65651;53.154;17.916;2023-02-01T05:36:20;10.00;;;2.20;;
76725;SDS011;65651;53.154;17.916;2023-02-01T05:38:47;12.70;;;1.40;;
76725;SDS011;65651;53.154;17.916;2023-02-01T05:41:14;12.80;;;2.30;;
76725;SDS011;65651;53.154;17.916;2023-02-01T05:43:42;17.60;;;2.30;;
76725;SDS011;65651;53.154;17.916;2023-02-01T05:46:09;3.60;;;1.30;;
76725;SDS011;65651;53.154;17.916;2023-02-01T05:48:39;14.20;;;2.60;;
76725;SDS011;65651;53.154;17.916;2023-02-01T05:51:08;20.60;;;2.90;;
76725;SDS011;65651;53.154;17.916;2023-02-01T05:53:37;18.60;;;3.80;;
76725;SDS011;65651;53.154;17.916;2023-02-01T05:56:04;8.60;;;2.50;;
76725;SDS011;65651;53.154;17.916;2023-02-01T05:58:33;5.10;;;1.30;;
76725;SDS011;65651;53.154;17.916;2023-02-01T06:01:00;10.30;;;1.90;;
76725;SDS011;65651;53.154;17.916;2023-02-01T06:03:29;16.70;;;2.10;;
76725;SDS011;65651;53.154;17.916;2023-02-01T06:05:56;13.90;;;2.90;;
76725;SDS011;65651;53.154;17.916;2023-02-01T06:08:24;29.50;;;6.90;;
76725;SDS011;65651;53.154;17.916;2023-02-01T06:11:01;17.60;;;4.00;;
76725;SDS011;65651;53.154;17.916;2023-02-01T06:13:33;18.60;;;4.50;;
76725;SDS011;65651;53.154;17.916;2023-02-01T06:16:02;11.00;;;3.60;;
76725;SDS011;65651;53.154;17.916;2023-02-01T06:18:30;8.90;;;3.40;;
76725;SDS011;65651;53.154;17.916;2023-02-01T06:20:58;13.50;;;2.90;;
76725;SDS011;65651;53.154;17.916;2023-02-01T06:23:33;10.80;;;3.70;;
76725;SDS011;65651;53.154;17.916;2023-02-01T06:26:07;19.90;;;5.70;;
76725;SDS011;65651;53.154;17.916;2023-02-01T06:28:37;16.10;;;4.00;;
76725;SDS011;65651;53.154;17.916;2023-02-01T06:31:07;17.20;;;3.70;;
76725;SDS011;65651;53.154;17.916;2023-02-01T06:33:34;15.50;;;3.40;;
76725;SDS011;65651;53.154;17.916;2023-02-01T06:36:06;6.70;;;1.70;;
76725;SDS011;65651;53.154;17.916;2023-02-01T06:38:35;16.00;;;2.50;;
76725;SDS011;65651;53.154;17.916;2023-02-01T06:41:03;11.50;;;1.90;;
76725;SDS011;65651;53.154;17.916;2023-02-01T06:43:31;13.80;;;3.20;;
76725;SDS011;65651;53.154;17.916;2023-02-01T06:46:03;9.60;;;2.00;;
76725;SDS011;65651;53.154;17.916;2023-02-01T06:48:33;7.30;;;1.70;;
76725;SDS011;65651;53.154;17.916;2023-02-01T06:51:01;15.50;;;3.70;;
76725;SDS011;65651;53.154;17.916;2023-02-01T06:53:28;14.00;;;3.30;;
76725;SDS011;65651;53.154;17.916;2023-02-01T06:56:00;15.80;;;3.80;;
76725;SDS011;65651;53.154;17.916;2023-02-01T06:58:32;23.90;;;7.20;;
76725;SDS011;65651;53.154;17.916;2023-02-01T07:01:06;17.40;;;3.90;;
76725;SDS011;65651;53.154;17.916;2023-02-01T07:03:35;125.70;;;29.20;;
76725;SDS011;65651;53.154;17.916;2023-02-01T07:06:04;197.60;;;39.90;;
76725;SDS011;65651;53.154;17.916;2023-02-01T07:08:32;396.20;;;83.50;;
76725;SDS011;65651;53.154;17.916;2023-02-01T07:11:05;441.90;;;88.70;;
76725;SDS011;65651;53.154;17.916;2023-02-01T07:13:35;83.30;;;12.10;;
76725;SDS011;65651;53.154;17.916;2023-02-01T07:16:04;33.90;;;5.90;;
76725;SDS011;65651;53.154;17.916;2023-02-01T07:18:33;36.10;;;6.70;;
76725;SDS011;65651;53.154;17.916;2023-02-01T07:21:03;25.10;;;6.30;;
76725;SDS011;65651;53.154;17.916;2023-02-01T07:23:31;17.00;;;4.90;;
76725;SDS011;65651;53.154;17.916;2023-02-01T07:25:59;18.10;;;5.30;;
76725;SDS011;65651;53.154;17.916;2023-02-01T07:28:29;11.30;;;3.70;;
76725;SDS011;65651;53.154;17.916;2023-02-01T07:31:08;37.80;;;10.70;;
76725;SDS011;65651;53.154;17.916;2023-02-01T07:33:42;106.50;;;25.10;;
76725;SDS011;65651;53.154;17.916;2023-02-01T07:36:14;11.50;;;3.90;;
76725;SDS011;65651;53.154;17.916;2023-02-01T07:38:45;23.10;;;3.80;;
76725;SDS011;65651;53.154;17.916;2023-02-01T07:41:17;32.30;;;9.40;;
76725;SDS011;65651;53.154;17.916;2023-02-01T07:43:44;43.70;;;11.20;;
76725;SDS011;65651;53.154;17.916;2023-02-01T07:46:13;65.00;;;17.40;;
76725;SDS011;65651;53.154;17.916;2023-02-01T07:48:42;18.10;;;6.20;;
76725;SDS011;65651;53.154;17.916;2023-02-01T07:51:10;41.10;;;10.00;;
76725;SDS011;65651;53.154;17.916;2023-02-01T07:53:39;25.80;;;6.30;;
76725;SDS011;65651;53.154;17.916;2023-02-01T07:56:11;20.80;;;5.80;;
76725;SDS011;65651;53.154;17.916;2023-02-01T07:58:52;28.10;;;6.50;;
76725;SDS011;65651;53.154;17.916;2023-02-01T08:01:28;53.80;;;11.10;;
76725;SDS011;65651;53.154;17.916;2023-02-01T08:03:57;26.50;;;8.40;;
76725;SDS011;65651;53.154;17.916;2023-02-01T08:06:27;32.60;;;7.30;;
76725;SDS011;65651;53.154;17.916;2023-02-01T08:08:57;19.90;;;4.90;;
76725;SDS011;65651;53.154;17.916;2023-02-01T08:11:25;36.10;;;7.90;;
76725;SDS011;65651;53.154;17.916;2023-02-01T08:13:54;42.10;;;9.80;;
76725;SDS011;65651;53.154;17.916;2023-02-01T08:16:22;44.50;;;10.10;;
76725;SDS011;65651;53.154;17.916;2023-02-01T08:18:57;31.00;;;7.60;;
76725;SDS011;65651;53.154;17.916;2023-02-01T08:21:27;23.90;;;5.40;;
76725;SDS011;65651;53.154;17.916;2023-02-01T08:24:07;14.50;;;3.40;;
76725;SDS011;65651;53.154;17.916;2023-02-01T08:26:35;26.60;;;6.70;;
76725;SDS011;65651;53.154;17.916;2023-02-01T08:29:04;14.40;;;3.50;;
76725;SDS011;65651;53.154;17.916;2023-02-01T08:31:33;41.90;;;9.00;;
76725;SDS011;65651;53.154;17.916;2023-02-01T08:34:02;35.20;;;7.30;;
76725;SDS011;65651;53.154;17.916;2023-02-01T08:36:32;40.70;;;10.30;;
76725;SDS011;65651;53.154;17.916;2023-02-01T08:39:00;21.70;;;5.20;;
76725;SDS011;65651;53.154;17.916;2023-02-01T08:41:29;33.40;;;7.60;;
76725;SDS011;65651;53.154;17.916;2023-02-01T08:43:57;34.10;;;8.80;;
76725;SDS011;65651;53.154;17.916;2023-02-01T08:46:24;28.30;;;7.80;;
76725;SDS011;65651;53.154;17.916;2023-02-01T08:48:52;14.40;;;3.80;;
76725;SDS011;65651;53.154;17.916;2023-02-01T08:51:22;21.80;;;6.30;;
76725;SDS011;65651;53.154;17.916;2023-02-01T08:53:51;21.30;;;6.80;;
76725;SDS011;65651;53.154;17.916;2023-02-01T08:56:19;36.50;;;10.50;;
76725;SDS011;65651;53.154;17.916;2023-02-01T08:58:48;10.80;;;3.50;;
76725;SDS011;65651;53.154;17.916;2023-02-01T09:04:41;21.80;;;4.80;;
76725;SDS011;65651;53.154;17.916;2023-02-01T09:07:10;30.10;;;9.40;;
76725;SDS011;65651;53.154;17.916;2023-02-01T09:09:38;12.60;;;4.70;;
76725;SDS011;65651;53.154;17.916;2023-02-01T09:12:05;26.50;;;6.40;;
76725;SDS011;65651;53.154;17.916;2023-02-01T09:14:33;15.00;;;4.20;;
76725;SDS011;65651;53.154;17.916;2023-02-01T09:17:00;18.80;;;5.70;;
76725;SDS011;65651;53.154;17.916;2023-02-01T09:19:27;13.70;;;4.10;;
76725;SDS011;65651;53.154;17.916;2023-02-01T09:21:55;12.00;;;2.30;;
76725;SDS011;65651;53.154;17.916;2023-02-01T09:24:22;11.30;;;3.60;;
76725;SDS011;65651;53.154;17.916;2023-02-01T09:26:50;18.80;;;5.80;;
76725;SDS011;65651;53.154;17.916;2023-02-01T09:29:18;46.50;;;15.80;;
76725;SDS011;65651;53.154;17.916;2023-02-01T09:31:45;17.50;;;5.40;;
76725;SDS011;65651;53.154;17.916;2023-02-01T09:34:13;19.00;;;5.80;;
76725;SDS011;65651;53.154;17.916;2023-02-01T09:36:40;21.50;;;4.90;;
76725;SDS011;65651;53.154;17.916;2023-02-01T09:39:07;27.50;;;7.70;;
76725;SDS011;65651;53.154;17.916;2023-02-01T09:47:19;27.30;;;7.70;;
76725;SDS011;65651;53.154;17.916;2023-02-01T09:52:25;14.30;;;3.90;;
76725;SDS011;65651;53.154;17.916;2023-02-01T09:55:11;12.20;;;2.80;;
76725;SDS011;65651;53.154;17.916;2023-02-01T09:57:51;8.90;;;2.30;;
76725;SDS011;65651;53.154;17.916;2023-02-01T10:00:25;15.00;;;3.10;;
76725;SDS011;65651;53.154;17.916;2023-02-01T10:02:56;12.60;;;3.20;;
76725;SDS011;65651;53.154;17.916;2023-02-01T10:08:12;10.80;;;2.60;;
76725;SDS011;65651;53.154;17.916;2023-02-01T10:21:42;8.40;;;2.60;;
76725;SDS011;65651;53.154;17.916;2023-02-01T10:27:12;3.70;;;1.00;;
76725;SDS011;65651;53.154;17.916;2023-02-01T10:30:27;12.10;;;2.00;;
76725;SDS011;65651;53.154;17.916;2023-02-01T10:33:26;8.10;;;2.20;;
76725;SDS011;65651;53.154;17.916;2023-02-01T10:36:46;11.30;;;3.50;;
76725;SDS011;65651;53.154;17.916;2023-02-01T10:39:33;18.00;;;4.50;;
76725;SDS011;65651;53.154;17.916;2023-02-01T10:42:20;18.10;;;4.20;;
76725;SDS011;65651;53.154;17.916;2023-02-01T10:44:51;20.00;;;4.40;;
76725;SDS011;65651;53.154;17.916;2023-02-01T10:47:26;13.40;;;3.60;;
76725;SDS011;65651;53.154;17.916;2023-02-01T10:52:50;16.00;;;4.10;;
76725;SDS011;65651;53.154;17.916;2023-02-01T10:55:28;16.40;;;5.50;;
76725;SDS011;65651;53.154;17.916;2023-02-01T10:57:58;10.70;;;3.60;;
76725;SDS011;65651;53.154;17.916;2023-02-01T11:00:37;49.80;;;11.00;;
76725;SDS011;65651;53.154;17.916;2023-02-01T11:03:21;19.80;;;3.80;;
76725;SDS011;65651;53.154;17.916;2023-02-01T11:05:48;19.40;;;4.00;;
76725;SDS011;65651;53.154;17.916;2023-02-01T11:08:16;13.30;;;3.60;;
76725;SDS011;65651;53.154;17.916;2023-02-01T11:10:56;16.50;;;4.40;;
76725;SDS011;65651;53.154;17.916;2023-02-01T11:13:32;18.90;;;3.70;;
76725;SDS011;65651;53.154;17.916;2023-02-01T11:16:14;10.30;;;3.70;;
76725;SDS011;65651;53.154;17.916;2023-02-01T11:19:23;14.00;;;2.70;;
76725;SDS011;65651;53.154;17.916;2023-02-01T11:26:35;18.90;;;5.40;;
76725;SDS011;65651;53.154;17.916;2023-02-01T11:32:31;18.20;;;3.50;;
76725;SDS011;65651;53.154;17.916;2023-02-01T11:40:02;22.20;;;3.50;;
76725;SDS011;65651;53.154;17.916;2023-02-01T11:43:22;23.30;;;3.90;;
76725;SDS011;65651;53.154;17.916;2023-02-01T11:45:59;18.80;;;4.10;;
76725;SDS011;65651;53.154;17.916;2023-02-01T11:48:30;10.00;;;2.60;;
76725;SDS011;65651;53.154;17.916;2023-02-01T12:12:28;7.50;;;3.00;;
76725;SDS011;65651;53.154;17.916;2023-02-01T12:21:20;7.10;;;2.40;;
76725;SDS011;65651;53.154;17.916;2023-02-01T12:23:54;6.40;;;1.80;;
76725;SDS011;65651;53.154;17.916;2023-02-01T12:41:33;4.00;;;1.60;;
76725;SDS011;65651;53.154;17.916;2023-02-01T12:46:41;9.70;;;4.20;;
76725;SDS011;65651;53.154;17.916;2023-02-01T12:49:22;8.50;;;3.70;;
76725;SDS011;65651;53.154;17.916;2023-02-01T12:52:13;26.50;;;7.90;;
76725;SDS011;65651;53.154;17.916;2023-02-01T12:54:55;32.00;;;10.50;;
76725;SDS011;65651;53.154;17.916;2023-02-01T12:57:29;31.40;;;8.70;;
76725;SDS011;65651;53.154;17.916;2023-02-01T13:02:34;7.10;;;2.50;;
76725;SDS011;65651;53.154;17.916;2023-02-01T13:05:19;15.80;;;4.30;;
76725;SDS011;65651;53.154;17.916;2023-02-01T13:07:50;11.20;;;3.90;;
76725;SDS011;65651;53.154;17.916;2023-02-01T13:13:17;15.30;;;4.40;;
76725;SDS011;65651;53.154;17.916;2023-02-01T13:16:11;11.00;;;4.30;;
76725;SDS011;65651;53.154;17.916;2023-02-01T13:18:49;7.10;;;2.80;;
76725;SDS011;65651;53.154;17.916;2023-02-01T13:21:26;7.40;;;3.40;;
76725;SDS011;65651;53.154;17.916;2023-02-01T13:23:58;21.40;;;7.20;;
76725;SDS011;65651;53.154;17.916;2023-02-01T13:26:26;19.60;;;9.60;;
76725;SDS011;65651;53.154;17.916;2023-02-01T13:29:04;7.50;;;3.70;;
76725;SDS011;65651;53.154;17.916;2023-02-01T13:39:47;8.50;;;4.20;;
76725;SDS011;65651;53.154;17.916;2023-02-01T13:42:46;6.70;;;2.30;;
76725;SDS011;65651;53.154;17.916;2023-02-01T13:45:19;10.40;;;3.20;;
76725;SDS011;65651;53.154;17.916;2023-02-01T13:47:51;13.20;;;3.90;;
76725;SDS011;65651;53.154;17.916;2023-02-01T13:52:57;6.90;;;2.10;;
76725;SDS011;65651;53.154;17.916;2023-02-01T13:55:34;22.80;;;6.20;;
76725;SDS011;65651;53.154;17.916;2023-02-01T13:58:13;5.70;;;1.90;;
76725;SDS011;65651;53.154;17.916;2023-02-01T14:00:50;5.50;;;2.30;;
76725;SDS011;65651;53.154;17.916;2023-02-01T14:03:42;3.40;;;1.00;;
76725;SDS011;65651;53.154;17.916;2023-02-01T14:11:54;11.20;;;3.40;;
76725;SDS011;65651;53.154;17.916;2023-02-01T14:19:23;19.70;;;7.10;;
76725;SDS011;65651;53.154;17.916;2023-02-01T14:21:53;18.90;;;5.00;;
76725;SDS011;65651;53.154;17.916;2023-02-01T14:24:29;22.10;;;7.10;;
76725;SDS011;65651;53.154;17.916;2023-02-01T14:27:01;18.60;;;7.60;;
76725;SDS011;65651;53.154;17.916;2023-02-01T14:29:58;14.60;;;5.30;;
76725;SDS011;65651;53.154;17.916;2023-02-01T14:32:37;13.40;;;4.60;;
76725;SDS011;65651;53.154;17.916;2023-02-01T14:35:06;17.60;;;5.80;;
76725;SDS011;65651;53.154;17.916;2023-02-01T14:37:43;12.00;;;4.50;;
76725;SDS011;65651;53.154;17.916;2023-02-01T14:40:20;7.60;;;2.90;;
76725;SDS011;65651;53.154;17.916;2023-02-01T14:42:55;10.80;;;3.70;;
76725;SDS011;65651;53.154;17.916;2023-02-01T14:50:43;11.90;;;4.40;;
76725;SDS011;65651;53.154;17.916;2023-02-01T14:59:00;10.50;;;3.70;;
76725;SDS011;65651;53.154;17.916;2023-02-01T15:01:37;9.00;;;2.70;;
76725;SDS011;65651;53.154;17.916;2023-02-01T15:04:16;18.20;;;5.20;;
76725;SDS011;65651;53.154;17.916;2023-02-01T15:12:26;19.80;;;4.20;;
76725;SDS011;65651;53.154;17.916;2023-02-01T15:17:41;14.60;;;4.60;;
76725;SDS011;65651;53.154;17.916;2023-02-01T15:20:17;19.80;;;4.90;;
76725;SDS011;65651;53.154;17.916;2023-02-01T15:22:59;24.00;;;6.90;;
76725;SDS011;65651;53.154;17.916;2023-02-01T15:25:27;34.40;;;8.80;;
76725;SDS011;65651;53.154;17.916;2023-02-01T15:30:30;31.60;;;9.40;;
76725;SDS011;65651;53.154;17.916;2023-02-01T15:33:15;61.50;;;14.30;;
76725;SDS011;65651;53.154;17.916;2023-02-01T15:35:51;41.00;;;11.20;;
76725;SDS011;65651;53.154;17.916;2023-02-01T15:46:41;35.60;;;10.00;;
76725;SDS011;65651;53.154;17.916;2023-02-01T15:52:16;30.80;;;8.10;;
76725;SDS011;65651;53.154;17.916;2023-02-01T15:54:51;32.70;;;12.10;;
76725;SDS011;65651;53.154;17.916;2023-02-01T15:57:28;28.50;;;10.80;;
76725;SDS011;65651;53.154;17.916;2023-02-01T15:59:59;24.60;;;8.70;;
76725;SDS011;65651;53.154;17.916;2023-02-01T16:02:51;17.00;;;5.90;;
76725;SDS011;65651;53.154;17.916;2023-02-01T16:05:32;17.60;;;5.10;;
76725;SDS011;65651;53.154;17.916;2023-02-01T16:10:44;25.50;;;7.90;;
76725;SDS011;65651;53.154;17.916;2023-02-01T16:13:18;18.80;;;4.40;;
76725;SDS011;65651;53.154;17.916;2023-02-01T16:15:58;13.00;;;3.50;;
76725;SDS011;65651;53.154;17.916;2023-02-01T16:18:29;23.60;;;8.30;;
76725;SDS011;65651;53.154;17.916;2023-02-01T16:20:57;13.30;;;4.60;;
76725;SDS011;65651;53.154;17.916;2023-02-01T16:23:30;8.10;;;3.70;;
76725;SDS011;65651;53.154;17.916;2023-02-01T16:25:59;13.90;;;5.20;;
76725;SDS011;65651;53.154;17.916;2023-02-01T16:28:26;15.10;;;5.60;;
76725;SDS011;65651;53.154;17.916;2023-02-01T16:30:57;9.50;;;4.70;;
76725;SDS011;65651;53.154;17.916;2023-02-01T16:33:25;8.60;;;4.30;;
76725;SDS011;65651;53.154;17.916;2023-02-01T16:35:54;13.20;;;4.60;;
76725;SDS011;65651;53.154;17.916;2023-02-01T16:38:28;15.60;;;8.80;;
76725;SDS011;65651;53.154;17.916;2023-02-01T16:40:56;27.50;;;9.90;;
76725;SDS011;65651;53.154;17.916;2023-02-01T16:43:25;16.30;;;7.30;;
76725;SDS011;65651;53.154;17.916;2023-02-01T16:45:55;25.30;;;6.60;;
76725;SDS011;65651;53.154;17.916;2023-02-01T16:48:30;10.40;;;2.20;;
76725;SDS011;65651;53.154;17.916;2023-02-01T16:51:04;27.70;;;6.70;;
76725;SDS011;65651;53.154;17.916;2023-02-01T16:53:41;14.40;;;4.20;;
76725;SDS011;65651;53.154;17.916;2023-02-01T16:56:14;29.20;;;7.80;;
76725;SDS011;65651;53.154;17.916;2023-02-01T16:58:48;27.90;;;8.00;;
76725;SDS011;65651;53.154;17.916;2023-02-01T17:01:22;63.10;;;17.00;;
76725;SDS011;65651;53.154;17.916;2023-02-01T17:04:04;41.20;;;10.20;;
76725;SDS011;65651;53.154;17.916;2023-02-01T17:06:39;57.10;;;17.90;;
76725;SDS011;65651;53.154;17.916;2023-02-01T17:09:08;69.20;;;20.70;;
76725;SDS011;65651;53.154;17.916;2023-02-01T17:11:44;35.30;;;9.80;;
76725;SDS011;65651;53.154;17.916;2023-02-01T17:14:29;80.00;;;19.20;;
76725;SDS011;65651;53.154;17.916;2023-02-01T17:17:01;37.90;;;8.60;;
76725;SDS011;65651;53.154;17.916;2023-02-01T17:19:40;58.80;;;12.00;;
76725;SDS011;65651;53.154;17.916;2023-02-01T17:22:10;45.50;;;10.60;;
76725;SDS011;65651;53.154;17.916;2023-02-01T17:27:55;42.30;;;7.50;;
76725;SDS011;65651;53.154;17.916;2023-02-01T17:30:30;79.50;;;14.40;;
76725;SDS011;65651;53.154;17.916;2023-02-01T17:33:28;33.00;;;8.20;;
76725;SDS011;65651;53.154;17.916;2023-02-01T17:36:27;47.70;;;10.50;;
76725;SDS011;65651;53.154;17.916;2023-02-01T17:38:59;41.20;;;12.00;;
76725;SDS011;65651;53.154;17.916;2023-02-01T17:41:33;28.00;;;9.60;;
76725;SDS011;65651;53.154;17.916;2023-02-01T17:44:09;85.00;;;17.70;;
76725;SDS011;65651;53.154;17.916;2023-02-01T17:46:55;38.20;;;12.40;;
76725;SDS011;65651;53.154;17.916;2023-02-01T17:49:37;38.70;;;9.70;;
76725;SDS011;65651;53.154;17.916;2023-02-01T17:52:15;75.20;;;11.20;;
76725;SDS011;65651;53.154;17.916;2023-02-01T17:54:55;34.70;;;7.40;;
76725;SDS011;65651;53.154;17.916;2023-02-01T17:57:35;32.50;;;8.40;;
76725;SDS011;65651;53.154;17.916;2023-02-01T18:00:20;23.90;;;5.50;;
76725;SDS011;65651;53.154;17.916;2023-02-01T18:03:01;64.20;;;13.20;;
76725;SDS011;65651;53.154;17.916;2023-02-01T18:05:40;50.10;;;10.90;;
76725;SDS011;65651;53.154;17.916;2023-02-01T18:08:28;47.00;;;8.50;;
76725;SDS011;65651;53.154;17.916;2023-02-01T18:11:14;100.50;;;18.60;;
76725;SDS011;65651;53.154;17.916;2023-02-01T18:14:02;51.90;;;7.90;;
76725;SDS011;65651;53.154;17.916;2023-02-01T18:20:23;16.60;;;4.10;;
76725;SDS011;65651;53.154;17.916;2023-02-01T18:26:15;33.10;;;8.10;;
76725;SDS011;65651;53.154;17.916;2023-02-01T18:28:45;64.80;;;13.50;;
76725;SDS011;65651;53.154;17.916;2023-02-01T18:31:27;16.00;;;6.70;;
76725;SDS011;65651;53.154;17.916;2023-02-01T18:34:08;59.50;;;13.10;;
76725;SDS011;65651;53.154;17.916;2023-02-01T18:37:16;47.90;;;9.50;;
76725;SDS011;65651;53.154;17.916;2023-02-01T18:40:23;56.00;;;11.80;;